sensor_id;sensor_type;location;lat;lon;timestamp;pressure;altitude;pressure_sealevel;temperature;humidity
21449;BME280;10885;52.830;13.788;2023-03-05T05:41:35;100666.88;;;1.05;69.96
21449;BME280;10885;52.830;13.788;2023-03-05T05:46:56;100674.03;;;1.00;69.80
21449;BME280;10885;52.830;13.788;2023-03-05T05:52:16;100670.16;;;0.95;70.32
21449;BME280;10885;52.830;13.788;2023-03-05T05:57:37;100667.34;;;0.92;70.64
21449;BME280;10885;52.830;13.788;2023-03-05T06:02:58;100675.03;;;0.93;70.69
21449;BME280;10885;52.830;13.788;2023-03-05T06:08:19;100674.00;;;0.91;70.46
21449;BME280;10885;52.830;13.788;2023-03-05T06:13:40;100670.59;;;0.91;70.69
21449;BME280;10885;52.830;13.788;2023-03-05T06:19:02;100682.50;;;0.92;70.71
21449;BME280;10885;52.830;13.788;2023-03-05T06:24:26;100675.81;;;0.92;70.66
21449;BME280;10885;52.830;13.788;2023-03-05T06:29:51;100674.75;;;0.99;70.86
21449;BME280;10885;52.830;13.788;2023-03-05T06:35:12;100674.91;;;1.01;70.76
21449;BME280;10885;52.830;13.788;2023-03-05T06:40:34;100679.66;;;1.06;70.56
21449;BME280;10885;52.830;13.788;2023-03-05T06:46:26;100674.59;;;1.06;70.55
21449;BME280;10885;52.830;13.788;2023-03-05T06:51:47;100674.16;;;1.10;71.11
21449;BME280;10885;52.830;13.788;2023-03-05T06:57:09;100672.22;;;1.16;71.42
21449;BME280;10885;52.830;13.788;2023-03-05T07:02:30;100671.50;;;1.17;71.15
21449;BME280;10885;52.830;13.788;2023-03-05T07:07:51;100666.00;;;1.22;71.25
21449;BME280;10885;52.830;13.788;2023-03-05T07:13:12;100676.78;;;1.29;71.10
21449;BME280;10885;52.830;13.788;2023-03-05T07:18:33;100680.63;;;1.43;70.91
21449;BME280;10885;52.830;13.788;2023-03-05T07:23:56;100679.88;;;1.53;69.73
21449;BME280;10885;52.830;13.788;2023-03-05T07:29:18;100678.06;;;1.69;68.95
21449;BME280;10885;52.830;13.788;2023-03-05T07:34:39;100679.84;;;2.34;66.88
21449;BME280;10885;52.830;13.788;2023-03-05T07:39:59;100684.81;;;2.90;63.82
21449;BME280;10885;52.830;13.788;2023-03-05T07:45:20;100685.06;;;3.12;63.19
21449;BME280;10885;52.830;13.788;2023-03-05T07:50:42;100685.84;;;4.19;59.39
21449;BME280;10885;52.830;13.788;2023-03-05T07:56:03;100683.78;;;4.05;57.56
21449;BME280;10885;52.830;13.788;2023-03-05T08:01:24;100679.81;;;3.88;58.36
21449;BME280;10885;52.830;13.788;2023-03-05T08:06:45;100689.50;;;3.33;59.56
21449;BME280;10885;52.830;13.788;2023-03-05T08:12:06;100677.75;;;2.96;60.62
21449;BME280;10885;52.830;13.788;2023-03-05T08:17:28;100681.28;;;2.69;61.19
21449;BME280;10885;52.830;13.788;2023-03-05T08:22:49;100684.06;;;2.53;61.46
21449;BME280;10885;52.830;13.788;2023-03-05T08:28:10;100680.44;;;2.59;61.92
21449;BME280;10885;52.830;13.788;2023-03-05T08:33:32;100685.19;;;2.56;60.79
21449;BME280;10885;52.830;13.788;2023-03-05T08:38:55;100682.66;;;2.56;61.61
21449;BME280;10885;52.830;13.788;2023-03-05T08:44:16;100668.41;;;2.57;61.97
21449;BME280;10885;52.830;13.788;2023-03-05T08:49:37;100675.22;;;2.58;61.20
21449;BME280;10885;52.830;13.788;2023-03-05T08:54:58;100672.13;;;2.52;61.35
21449;BME280;10885;52.830;13.788;2023-03-05T09:00:19;100668.09;;;2.54;61.53
21449;BME280;10885;52.830;13.788;2023-03-05T09:05:40;100670.22;;;2.49;62.04
21449;BME280;10885;52.830;13.788;2023-03-05T09:11:02;100669.16;;;2.75;61.29
21449;BME280;10885;52.830;13.788;2023-03-05T09:16:23;100669.44;;;2.97;60.00
21449;BME280;10885;52.830;13.788;2023-03-05T09:21:44;100662.56;;;3.15;58.96
21449;BME280;10885;52.830;13.788;2023-03-05T09:27:05;100657.25;;;3.91;57.93
21449;BME280;10885;52.830;13.788;2023-03-05T09:32:26;100652.75;;;4.38;55.30
21449;BME280;10885;52.830;13.788;2023-03-05T09:37:47;100644.16;;;3.76;54.88
21449;BME280;10885;52.830;13.788;2023-03-05T09:54:40;100648.22;;;2.67;58.78
21449;BME280;10885;52.830;13.788;2023-03-05T10:00:05;100649.91;;;2.58;57.99
21449;BME280;10885;52.830;13.788;2023-03-05T10:28:40;100621.38;;;3.86;54.64
21449;BME280;10885;52.830;13.788;2023-03-05T10:39:59;100616.59;;;5.80;47.73
21449;BME280;10885;52.830;13.788;2023-03-05T10:45:42;100615.56;;;5.12;48.72
21449;BME280;10885;52.830;13.788;2023-03-05T10:51:18;100612.75;;;3.84;48.13
21449;BME280;10885;52.830;13.788;2023-03-05T10:56:40;100612.84;;;2.96;50.65
21449;BME280;10885;52.830;13.788;2023-03-05T11:02:07;100613.06;;;2.51;53.66
21449;BME280;10885;52.830;13.788;2023-03-05T11:07:31;100616.84;;;2.18;56.11
21449;BME280;10885;52.830;13.788;2023-03-05T11:12:53;100608.53;;;2.19;57.01
21449;BME280;10885;52.830;13.788;2023-03-05T11:18:19;100606.00;;;2.38;56.95
21449;BME280;10885;52.830;13.788;2023-03-05T11:23:42;100598.97;;;2.64;56.25
21449;BME280;10885;52.830;13.788;2023-03-05T11:29:03;100594.78;;;2.83;56.76
21449;BME280;10885;52.830;13.788;2023-03-05T11:34:30;100594.84;;;2.93;55.24
21449;BME280;10885;52.830;13.788;2023-03-05T11:40:15;100589.50;;;3.19;55.19
21449;BME280;10885;52.830;13.788;2023-03-05T11:45:37;100586.63;;;3.35;53.10
21449;BME280;10885;52.830;13.788;2023-03-05T11:51:01;100585.13;;;3.37;51.73
21449;BME280;10885;52.830;13.788;2023-03-05T11:56:26;100576.78;;;3.38;51.59
21449;BME280;10885;52.830;13.788;2023-03-05T12:01:52;100575.09;;;3.29;51.80
21449;BME280;10885;52.830;13.788;2023-03-05T12:07:18;100572.25;;;3.45;49.93
21449;BME280;10885;52.830;13.788;2023-03-05T12:12:52;100557.19;;;5.46;56.08
21449;BME280;10885;52.830;13.788;2023-03-05T12:23:52;100544.03;;;9.89;34.75
21449;BME280;10885;52.830;13.788;2023-03-05T12:29:28;100549.00;;;7.72;38.68
21449;BME280;10885;52.830;13.788;2023-03-05T12:34:59;100537.25;;;6.89;40.85
21449;BME280;10885;52.830;13.788;2023-03-05T12:40:23;100532.38;;;6.68;41.45
21449;BME280;10885;52.830;13.788;2023-03-05T12:45:44;100521.28;;;6.21;41.94
21449;BME280;10885;52.830;13.788;2023-03-05T12:51:10;100522.28;;;5.89;42.90
21449;BME280;10885;52.830;13.788;2023-03-05T12:56:33;100521.53;;;5.56;43.12
21449;BME280;10885;52.830;13.788;2023-03-05T13:01:59;100512.06;;;5.21;42.86
21449;BME280;10885;52.830;13.788;2023-03-05T13:07:23;100513.78;;;4.46;44.41
21449;BME280;10885;52.830;13.788;2023-03-05T13:12:48;100516.13;;;4.12;45.82
21449;BME280;10885;52.830;13.788;2023-03-05T13:18:21;100515.63;;;4.16;45.85
21449;BME280;10885;52.830;13.788;2023-03-05T13:29:19;100510.56;;;4.58;45.50
21449;BME280;10885;52.830;13.788;2023-03-05T13:34:43;100483.13;;;4.65;45.22
21449;BME280;10885;52.830;13.788;2023-03-05T13:40:25;100497.72;;;5.00;43.78
21449;BME280;10885;52.830;13.788;2023-03-05T13:45:52;100501.94;;;5.43;42.56
21449;BME280;10885;52.830;13.788;2023-03-05T13:51:15;100503.94;;;5.47;42.95
21449;BME280;10885;52.830;13.788;2023-03-05T13:57:06;100489.69;;;5.49;42.48
21449;BME280;10885;52.830;13.788;2023-03-05T14:02:28;100487.44;;;5.42;41.94
21449;BME280;10885;52.830;13.788;2023-03-05T14:07:52;100477.50;;;5.01;42.51
21449;BME280;10885;52.830;13.788;2023-03-05T14:13:20;100463.44;;;4.72;43.00
21449;BME280;10885;52.830;13.788;2023-03-05T14:24:23;100455.78;;;4.50;43.78
21449;BME280;10885;52.830;13.788;2023-03-05T14:29:46;100450.44;;;4.47;43.17
21449;BME280;10885;52.830;13.788;2023-03-05T14:35:19;100445.19;;;4.24;43.70
21449;BME280;10885;52.830;13.788;2023-03-05T14:40:41;100445.50;;;4.06;43.74
21449;BME280;10885;52.830;13.788;2023-03-05T14:46:03;100445.53;;;3.96;44.51
21449;BME280;10885;52.830;13.788;2023-03-05T14:51:24;100446.66;;;3.89;45.65
21449;BME280;10885;52.830;13.788;2023-03-05T14:56:45;100443.25;;;3.78;44.96
21449;BME280;10885;52.830;13.788;2023-03-05T15:02:22;100437.56;;;3.61;46.12
21449;BME280;10885;52.830;13.788;2023-03-05T15:07:44;100433.50;;;3.63;46.02
21449;BME280;10885;52.830;13.788;2023-03-05T15:13:05;100427.78;;;3.55;46.19
21449;BME280;10885;52.830;13.788;2023-03-05T15:18:26;100430.69;;;3.49;46.82
21449;BME280;10885;52.830;13.788;2023-03-05T15:23:47;100423.09;;;3.39;46.08
21449;BME280;10885;52.830;13.788;2023-03-05T15:29:09;100420.81;;;3.32;47.07
21449;BME280;10885;52.830;13.788;2023-03-05T15:34:31;100421.44;;;3.19;47.44
21449;BME280;10885;52.830;13.788;2023-03-05T15:39:53;100407.13;;;3.19;52.11
21449;BME280;10885;52.830;13.788;2023-03-05T15:45:14;100402.94;;;3.20;47.57
21449;BME280;10885;52.830;13.788;2023-03-05T15:50:35;100405.72;;;3.13;47.84
21449;BME280;10885;52.830;13.788;2023-03-05T15:55:56;100410.50;;;2.99;47.91
21449;BME280;10885;52.830;13.788;2023-03-05T16:01:17;100393.53;;;2.88;48.38
21449;BME280;10885;52.830;13.788;2023-03-05T16:06:47;100389.97;;;2.86;48.12
21449;BME280;10885;52.830;13.788;2023-03-05T16:12:12;100389.31;;;2.78;46.49
21449;BME280;10885;52.830;13.788;2023-03-05T16:17:35;100390.72;;;2.65;46.76
21449;BME280;10885;52.830;13.788;2023-03-05T16:22:57;100386.75;;;2.58;47.19
21449;BME280;10885;52.830;13.788;2023-03-05T16:28:18;100382.53;;;2.48;47.11
21449;BME280;10885;52.830;13.788;2023-03-05T16:33:38;100382.00;;;2.42;47.35
21449;BME280;10885;52.830;13.788;2023-03-05T16:39:01;100385.53;;;2.34;46.28
21449;BME280;10885;52.830;13.788;2023-03-05T16:44:23;100382.59;;;2.29;46.92
21449;BME280;10885;52.830;13.788;2023-03-05T16:49:44;100377.03;;;2.23;46.96
21449;BME280;10885;52.830;13.788;2023-03-05T16:55:05;100387.72;;;2.21;47.22
21449;BME280;10885;52.830;13.788;2023-03-05T17:00:26;100387.97;;;2.13;47.54
21449;BME280;10885;52.830;13.788;2023-03-05T17:05:47;100397.66;;;2.09;48.04
21449;BME280;10885;52.830;13.788;2023-03-05T17:11:09;100395.50;;;2.03;48.28
21449;BME280;10885;52.830;13.788;2023-03-05T17:16:31;100397.13;;;2.03;48.54
21449;BME280;10885;52.830;13.788;2023-03-05T17:21:53;100388.81;;;2.04;48.55
21449;BME280;10885;52.830;13.788;2023-03-05T17:27:14;100391.81;;;1.99;49.11
21449;BME280;10885;52.830;13.788;2023-03-05T17:32:38;100387.72;;;1.91;48.99
21449;BME280;10885;52.830;13.788;2023-03-05T17:38:02;100381.22;;;1.85;49.82
21449;BME280;10885;52.830;13.788;2023-03-05T17:43:24;100382.63;;;1.81;50.98
21449;BME280;10885;52.830;13.788;2023-03-05T17:48:45;100384.84;;;1.78;50.21
21449;BME280;10885;52.830;13.788;2023-03-05T17:54:05;100387.81;;;1.64;50.80
21449;BME280;10885;52.830;13.788;2023-03-05T17:59:27;100383.41;;;1.52;50.67
21449;BME280;10885;52.830;13.788;2023-03-05T18:04:48;100385.88;;;1.42;51.09
21449;BME280;10885;52.830;13.788;2023-03-05T18:10:12;100381.31;;;1.38;51.24
21449;BME280;10885;52.830;13.788;2023-03-05T18:15:34;100387.22;;;1.38;51.36
21449;BME280;10885;52.830;13.788;2023-03-05T18:20:55;100376.56;;;1.32;51.33
21449;BME280;10885;52.830;13.788;2023-03-05T18:26:17;100375.56;;;1.30;51.12
21449;BME280;10885;52.830;13.788;2023-03-05T18:31:38;100368.72;;;1.29;51.17
21449;BME280;10885;52.830;13.788;2023-03-05T18:36:59;100369.47;;;1.28;51.96
21449;BME280;10885;52.830;13.788;2023-03-05T18:42:20;100366.53;;;1.24;51.35
21449;BME280;10885;52.830;13.788;2023-03-05T18:47:41;100366.53;;;1.24;51.74
21449;BME280;10885;52.830;13.788;2023-03-05T18:53:02;100368.31;;;1.25;51.22
21449;BME280;10885;52.830;13.788;2023-03-05T18:58:23;100361.75;;;1.27;51.34
21449;BME280;10885;52.830;13.788;2023-03-05T19:03:46;100368.84;;;1.31;50.88
21449;BME280;10885;52.830;13.788;2023-03-05T19:09:31;100369.63;;;1.30;51.19
21449;BME280;10885;52.830;13.788;2023-03-05T19:15:12;100362.03;;;1.30;51.11
21449;BME280;10885;52.830;13.788;2023-03-05T19:20:33;100361.03;;;1.28;51.21
21449;BME280;10885;52.830;13.788;2023-03-05T19:25:54;100353.91;;;1.24;51.46
21449;BME280;10885;52.830;13.788;2023-03-05T19:31:15;100354.66;;;1.23;51.89
21449;BME280;10885;52.830;13.788;2023-03-05T19:36:36;100355.13;;;1.18;52.44
21449;BME280;10885;52.830;13.788;2023-03-05T19:41:57;100351.88;;;1.19;53.12
21449;BME280;10885;52.830;13.788;2023-03-05T19:47:18;100345.78;;;1.17;53.48
21449;BME280;10885;52.830;13.788;2023-03-05T19:52:39;100333.91;;;1.16;54.73
21449;BME280;10885;52.830;13.788;2023-03-05T19:58:00;100332.25;;;1.17;54.48
21449;BME280;10885;52.830;13.788;2023-03-05T20:03:22;100325.31;;;1.14;55.20
21449;BME280;10885;52.830;13.788;2023-03-05T20:08:44;100328.56;;;1.13;55.53
21449;BME280;10885;52.830;13.788;2023-03-05T20:14:06;100332.19;;;1.07;56.22
21449;BME280;10885;52.830;13.788;2023-03-05T20:19:27;100325.50;;;1.07;56.26
21449;BME280;10885;52.830;13.788;2023-03-05T20:24:48;100322.69;;;1.04;56.74
21449;BME280;10885;52.830;13.788;2023-03-05T20:30:12;100323.91;;;0.99;57.62
21449;BME280;10885;52.830;13.788;2023-03-05T20:35:33;100324.06;;;1.01;58.78
21449;BME280;10885;52.830;13.788;2023-03-05T20:40:56;100323.75;;;0.97;59.06
21449;BME280;10885;52.830;13.788;2023-03-05T20:46:21;100317.09;;;0.98;59.20
21449;BME280;10885;52.830;13.788;2023-03-05T20:51:47;100308.91;;;1.01;59.73
21449;BME280;10885;52.830;13.788;2023-03-05T20:57:08;100303.72;;;0.99;59.91
21449;BME280;10885;52.830;13.788;2023-03-05T21:02:29;100299.16;;;0.95;60.14
21449;BME280;10885;52.830;13.788;2023-03-05T21:07:50;100297.38;;;0.94;60.84
21449;BME280;10885;52.830;13.788;2023-03-05T21:13:12;100287.28;;;0.94;61.13
21449;BME280;10885;52.830;13.788;2023-03-05T21:18:33;100280.94;;;0.89;61.31
21449;BME280;10885;52.830;13.788;2023-03-05T21:23:54;100270.84;;;0.89;61.99
21449;BME280;10885;52.830;13.788;2023-03-05T21:29:15;100265.53;;;0.86;62.28
21449;BME280;10885;52.830;13.788;2023-03-05T21:34:36;100261.69;;;0.81;62.99
21449;BME280;10885;52.830;13.788;2023-03-05T21:39:57;100258.75;;;0.76;62.96
21449;BME280;10885;52.830;13.788;2023-03-05T21:45:20;100247.03;;;0.76;63.26
21449;BME280;10885;52.830;13.788;2023-03-05T21:50:43;100247.63;;;0.74;63.88
21449;BME280;10885;52.830;13.788;2023-03-05T21:56:17;100253.09;;;0.78;64.26
21449;BME280;10885;52.830;13.788;2023-03-05T22:01:43;100238.97;;;0.81;64.20
21449;BME280;10885;52.830;13.788;2023-03-05T22:07:04;100230.78;;;0.83;63.75
21449;BME280;10885;52.830;13.788;2023-03-05T22:18:32;100226.97;;;0.78;64.57
